This is the latest recevied weather packets stored in our database for station/object KC0OOO-WX. If no packets are shown the sender has not sent any weather packets the latest 1 day(s).
| Time | Temp. | Humidity | Pressure | Rain* | Wind** | Luminosity | Snow |
|---|---|---|---|---|---|---|---|
| 1778029538 | 11.11° C | 45% | 1011.2 hPa | 0 mm | - | - | - |
| 1778028938 | 11.67° C | 41% | 1010.8 hPa | 0 mm | - | - | - |
| 1778028338 | 12.22° C | 40% | 1010.8 hPa | 0 mm | - | - | - |
| 1778027738 | 12.22° C | 40% | 1010.8 hPa | 0 mm | - | - | - |
| 1778027138 | 12.78° C | 38% | 1010.8 hPa | 0 mm | - | - | - |
| 1778026538 | 12.78° C | 38% | 1010.5 hPa | 0 mm | - | - | - |
| 1778023537 | 15° C | 33% | 1010.2 hPa | 0 mm | - | - | - |
| 1778021737 | 16.67° C | 28% | 1010.2 hPa | 0 mm | - | - | - |
| 1778020537 | 16.67° C | 25% | 1010.5 hPa | 0 mm | - | - | - |
| 1778019907 | 15.56° C | 25% | 1010.8 hPa | 0 mm | - | - | - |
| 1778018707 | 16.11° C | 24% | 1010.8 hPa | 0 mm | - | - | - |
| 1778018107 | 16.67° C | 25% | 1011.2 hPa | 0 mm | - | - | - |
| 1778016907 | 16.11° C | 27% | 1011.5 hPa | 0 mm | - | - | - |
| 1778016277 | 16.11° C | 27% | 1011.9 hPa | 0 mm | - | - | - |
| 1778001246 | 11.67° C | 36% | 1013.9 hPa | 0 mm | - | - | - |
| 1778000046 | 11.67° C | 38% | 1013.9 hPa | 0 mm | - | - | - |
| 1777999416 | 11.67° C | 37% | 1014.2 hPa | 0 mm | - | - | - |
| 1777998786 | 11.11° C | 38% | 1014.2 hPa | 0 mm | - | - | - |
| 1777998156 | 11.11° C | 38% | 1014.2 hPa | 0 mm | - | - | - |
| 1777997556 | 11.11° C | 38% | 1014.2 hPa | 0 mm | - | - | - |
| 1777996356 | 10° C | 45% | 1014.3 hPa | 0 mm | - | - | - |
| 1777995756 | 8.89° C | 48% | 1014.6 hPa | 0 mm | - | - | - |
| 1777995156 | 8.33° C | 48% | 1014.6 hPa | 0 mm | - | - | - |
| 1777994556 | 8.33° C | 50% | 1014.6 hPa | 0 mm | - | - | - |
| 1777993956 | 7.78° C | 50% | 1014.6 hPa | 0 mm | - | - | - |
* Rain latest hour (hover to see other rain measurements)
** Current wind speed in m/s (hover to see current wind gust speed)